sensor_id;sensor_type;location;lat;lon;timestamp;temperature;humidity
7762;DHT22;3925;48.636;9.516;2023-02-21T00:00:05;6.90;98.10
7762;DHT22;3925;48.636;9.516;2023-02-21T00:02:49;6.70;98.10
7762;DHT22;3925;48.636;9.516;2023-02-21T00:05:35;6.70;98.50
7762;DHT22;3925;48.636;9.516;2023-02-21T00:08:19;6.80;98.50
7762;DHT22;3925;48.636;9.516;2023-02-21T00:11:03;6.70;98.70
7762;DHT22;3925;48.636;9.516;2023-02-21T00:13:48;6.70;98.60
7762;DHT22;3925;48.636;9.516;2023-02-21T00:16:31;6.70;99.00
7762;DHT22;3925;48.636;9.516;2023-02-21T00:19:16;6.80;98.90
7762;DHT22;3925;48.636;9.516;2023-02-21T00:22:01;6.60;98.70
7762;DHT22;3925;48.636;9.516;2023-02-21T00:24:45;6.60;98.90
7762;DHT22;3925;48.636;9.516;2023-02-21T00:27:29;6.60;99.40
7762;DHT22;3925;48.636;9.516;2023-02-21T00:30:14;6.60;99.30
7762;DHT22;3925;48.636;9.516;2023-02-21T00:32:59;6.50;99.50
7762;DHT22;3925;48.636;9.516;2023-02-21T00:35:43;6.40;99.90
7762;DHT22;3925;48.636;9.516;2023-02-21T00:38:28;6.30;99.90
7762;DHT22;3925;48.636;9.516;2023-02-21T00:41:12;6.40;99.90
7762;DHT22;3925;48.636;9.516;2023-02-21T00:43:57;6.40;99.90
7762;DHT22;3925;48.636;9.516;2023-02-21T00:46:41;6.50;99.90
7762;DHT22;3925;48.636;9.516;2023-02-21T00:49:25;6.40;99.90
7762;DHT22;3925;48.636;9.516;2023-02-21T00:52:09;6.30;99.90
7762;DHT22;3925;48.636;9.516;2023-02-21T00:54:54;6.30;99.90
7762;DHT22;3925;48.636;9.516;2023-02-21T00:57:38;6.20;99.90
7762;DHT22;3925;48.636;9.516;2023-02-21T01:00:23;6.40;99.90
7762;DHT22;3925;48.636;9.516;2023-02-21T01:03:08;6.30;99.90
7762;DHT22;3925;48.636;9.516;2023-02-21T01:05:53;6.20;99.90
7762;DHT22;3925;48.636;9.516;2023-02-21T01:08:40;6.10;99.90
7762;DHT22;3925;48.636;9.516;2023-02-21T01:11:26;6.10;99.90
7762;DHT22;3925;48.636;9.516;2023-02-21T01:14:11;5.70;99.90
7762;DHT22;3925;48.636;9.516;2023-02-21T01:16:55;5.70;99.90
7762;DHT22;3925;48.636;9.516;2023-02-21T01:19:39;5.70;99.90
7762;DHT22;3925;48.636;9.516;2023-02-21T01:22:23;5.60;99.90
7762;DHT22;3925;48.636;9.516;2023-02-21T01:25:08;5.60;99.90
7762;DHT22;3925;48.636;9.516;2023-02-21T01:27:54;5.60;99.90
7762;DHT22;3925;48.636;9.516;2023-02-21T01:30:38;5.70;99.90
7762;DHT22;3925;48.636;9.516;2023-02-21T01:33:23;5.70;99.90
7762;DHT22;3925;48.636;9.516;2023-02-21T01:36:08;5.50;99.90
7762;DHT22;3925;48.636;9.516;2023-02-21T01:38:52;5.40;99.90
7762;DHT22;3925;48.636;9.516;2023-02-21T01:41:36;5.60;99.90
7762;DHT22;3925;48.636;9.516;2023-02-21T01:44:33;5.60;99.90
7762;DHT22;3925;48.636;9.516;2023-02-21T01:47:18;5.70;99.90
7762;DHT22;3925;48.636;9.516;2023-02-21T01:50:05;5.70;99.90
7762;DHT22;3925;48.636;9.516;2023-02-21T01:52:50;5.50;99.90
7762;DHT22;3925;48.636;9.516;2023-02-21T01:55:37;5.30;99.90
7762;DHT22;3925;48.636;9.516;2023-02-21T01:58:23;5.10;99.90
7762;DHT22;3925;48.636;9.516;2023-02-21T02:01:18;5.40;99.90
7762;DHT22;3925;48.636;9.516;2023-02-21T02:04:04;5.40;99.90
7762;DHT22;3925;48.636;9.516;2023-02-21T02:06:48;5.50;99.90
7762;DHT22;3925;48.636;9.516;2023-02-21T02:09:33;5.40;99.90
7762;DHT22;3925;48.636;9.516;2023-02-21T02:12:49;5.40;99.90
7762;DHT22;3925;48.636;9.516;2023-02-21T02:15:28;5.20;99.90
7762;DHT22;3925;48.636;9.516;2023-02-21T02:18:08;5.50;99.90
7762;DHT22;3925;48.636;9.516;2023-02-21T02:24:24;5.40;99.90
7762;DHT22;3925;48.636;9.516;2023-02-21T02:35:58;5.30;99.90
7762;DHT22;3925;48.636;9.516;2023-02-21T02:38:33;5.30;99.90
7762;DHT22;3925;48.636;9.516;2023-02-21T02:41:05;5.40;99.90
7762;DHT22;3925;48.636;9.516;2023-02-21T02:43:38;5.40;99.90
7762;DHT22;3925;48.636;9.516;2023-02-21T02:46:12;5.30;99.90
7762;DHT22;3925;48.636;9.516;2023-02-21T02:48:44;5.30;99.90
7762;DHT22;3925;48.636;9.516;2023-02-21T02:51:14;4.90;99.90
7762;DHT22;3925;48.636;9.516;2023-02-21T02:53:41;4.80;99.90
7762;DHT22;3925;48.636;9.516;2023-02-21T02:56:10;4.60;99.90
7762;DHT22;3925;48.636;9.516;2023-02-21T02:58:40;4.60;99.90
7762;DHT22;3925;48.636;9.516;2023-02-21T03:01:24;4.50;99.90
7762;DHT22;3925;48.636;9.516;2023-02-21T03:04:03;4.50;99.90
7762;DHT22;3925;48.636;9.516;2023-02-21T03:06:46;4.60;99.90
7762;DHT22;3925;48.636;9.516;2023-02-21T03:09:19;5.00;99.90
7762;DHT22;3925;48.636;9.516;2023-02-21T03:11:56;5.10;99.90
7762;DHT22;3925;48.636;9.516;2023-02-21T03:14:29;5.20;99.90
7762;DHT22;3925;48.636;9.516;2023-02-21T03:17:00;5.50;99.90
7762;DHT22;3925;48.636;9.516;2023-02-21T03:19:31;5.50;99.90
7762;DHT22;3925;48.636;9.516;2023-02-21T03:22:02;5.60;99.90
7762;DHT22;3925;48.636;9.516;2023-02-21T03:24:31;5.30;99.90
7762;DHT22;3925;48.636;9.516;2023-02-21T03:27:02;4.90;99.90
7762;DHT22;3925;48.636;9.516;2023-02-21T03:29:33;4.50;99.90
7762;DHT22;3925;48.636;9.516;2023-02-21T03:32:06;4.30;99.90
7762;DHT22;3925;48.636;9.516;2023-02-21T03:34:36;4.20;99.90
7762;DHT22;3925;48.636;9.516;2023-02-21T03:37:06;4.40;99.90
7762;DHT22;3925;48.636;9.516;2023-02-21T03:39:33;4.80;99.90
7762;DHT22;3925;48.636;9.516;2023-02-21T03:42:00;5.00;99.90
7762;DHT22;3925;48.636;9.516;2023-02-21T03:44:27;5.00;99.90
7762;DHT22;3925;48.636;9.516;2023-02-21T03:46:54;4.90;99.90
7762;DHT22;3925;48.636;9.516;2023-02-21T03:49:21;4.90;99.90
7762;DHT22;3925;48.636;9.516;2023-02-21T03:51:48;4.80;99.90
7762;DHT22;3925;48.636;9.516;2023-02-21T03:54:16;4.50;99.90
7762;DHT22;3925;48.636;9.516;2023-02-21T03:56:43;4.40;99.90
7762;DHT22;3925;48.636;9.516;2023-02-21T03:59:10;4.60;99.90
7762;DHT22;3925;48.636;9.516;2023-02-21T04:01:36;4.60;99.90
7762;DHT22;3925;48.636;9.516;2023-02-21T04:04:03;4.70;99.90
7762;DHT22;3925;48.636;9.516;2023-02-21T04:06:30;4.60;99.90
7762;DHT22;3925;48.636;9.516;2023-02-21T04:08:57;4.40;99.90
7762;DHT22;3925;48.636;9.516;2023-02-21T04:11:25;4.60;99.90
7762;DHT22;3925;48.636;9.516;2023-02-21T04:13:52;4.50;99.90
7762;DHT22;3925;48.636;9.516;2023-02-21T04:16:19;4.40;99.90
7762;DHT22;3925;48.636;9.516;2023-02-21T04:18:46;4.40;99.90
7762;DHT22;3925;48.636;9.516;2023-02-21T04:21:15;4.50;99.90
7762;DHT22;3925;48.636;9.516;2023-02-21T04:23:42;4.60;99.90
7762;DHT22;3925;48.636;9.516;2023-02-21T04:26:08;4.60;99.90
7762;DHT22;3925;48.636;9.516;2023-02-21T04:28:37;4.50;99.90
7762;DHT22;3925;48.636;9.516;2023-02-21T04:31:04;4.40;99.90
7762;DHT22;3925;48.636;9.516;2023-02-21T04:33:30;4.40;99.90
7762;DHT22;3925;48.636;9.516;2023-02-21T04:35:57;4.40;99.90
7762;DHT22;3925;48.636;9.516;2023-02-21T04:38:24;4.40;99.90
7762;DHT22;3925;48.636;9.516;2023-02-21T04:40:51;4.50;99.90
7762;DHT22;3925;48.636;9.516;2023-02-21T04:43:18;4.40;99.90
7762;DHT22;3925;48.636;9.516;2023-02-21T04:45:47;4.40;99.90
7762;DHT22;3925;48.636;9.516;2023-02-21T04:48:14;4.30;99.90
7762;DHT22;3925;48.636;9.516;2023-02-21T04:50:41;4.50;99.90
7762;DHT22;3925;48.636;9.516;2023-02-21T04:53:08;4.50;99.90
7762;DHT22;3925;48.636;9.516;2023-02-21T04:55:35;4.50;99.90
7762;DHT22;3925;48.636;9.516;2023-02-21T04:58:02;4.50;99.90
7762;DHT22;3925;48.636;9.516;2023-02-21T05:00:29;4.20;99.90
7762;DHT22;3925;48.636;9.516;2023-02-21T05:02:57;4.00;99.90
7762;DHT22;3925;48.636;9.516;2023-02-21T05:05:24;3.80;99.90
7762;DHT22;3925;48.636;9.516;2023-02-21T05:07:51;3.90;99.90
7762;DHT22;3925;48.636;9.516;2023-02-21T05:10:18;4.00;99.90
7762;DHT22;3925;48.636;9.516;2023-02-21T05:12:45;4.40;99.90
7762;DHT22;3925;48.636;9.516;2023-02-21T05:15:12;4.30;99.90
7762;DHT22;3925;48.636;9.516;2023-02-21T05:17:40;4.20;99.90
7762;DHT22;3925;48.636;9.516;2023-02-21T05:20:09;4.30;99.90
7762;DHT22;3925;48.636;9.516;2023-02-21T05:22:37;4.10;99.90
7762;DHT22;3925;48.636;9.516;2023-02-21T05:25:05;4.00;99.90
7762;DHT22;3925;48.636;9.516;2023-02-21T05:27:32;4.20;99.90
7762;DHT22;3925;48.636;9.516;2023-02-21T05:29:59;4.00;99.90
7762;DHT22;3925;48.636;9.516;2023-02-21T05:32:26;4.20;99.90
7762;DHT22;3925;48.636;9.516;2023-02-21T05:34:54;4.10;99.90
7762;DHT22;3925;48.636;9.516;2023-02-21T05:37:22;3.90;99.90
7762;DHT22;3925;48.636;9.516;2023-02-21T05:39:49;3.90;99.90
7762;DHT22;3925;48.636;9.516;2023-02-21T05:42:16;3.80;99.90
7762;DHT22;3925;48.636;9.516;2023-02-21T05:44:43;3.80;99.90
7762;DHT22;3925;48.636;9.516;2023-02-21T05:47:11;3.70;99.90
7762;DHT22;3925;48.636;9.516;2023-02-21T05:49:38;3.80;99.90
7762;DHT22;3925;48.636;9.516;2023-02-21T05:52:05;4.00;99.90
7762;DHT22;3925;48.636;9.516;2023-02-21T05:54:34;3.90;99.90
7762;DHT22;3925;48.636;9.516;2023-02-21T05:57:01;3.90;99.90
7762;DHT22;3925;48.636;9.516;2023-02-21T05:59:27;3.70;99.90
7762;DHT22;3925;48.636;9.516;2023-02-21T06:01:54;3.90;99.90
7762;DHT22;3925;48.636;9.516;2023-02-21T06:04:22;4.00;99.90
7762;DHT22;3925;48.636;9.516;2023-02-21T06:06:50;4.30;99.90
7762;DHT22;3925;48.636;9.516;2023-02-21T06:09:17;4.10;99.90
7762;DHT22;3925;48.636;9.516;2023-02-21T06:11:46;4.30;99.90
7762;DHT22;3925;48.636;9.516;2023-02-21T06:14:15;4.40;99.90
7762;DHT22;3925;48.636;9.516;2023-02-21T06:16:42;4.30;99.90
7762;DHT22;3925;48.636;9.516;2023-02-21T06:19:10;4.30;99.90
7762;DHT22;3925;48.636;9.516;2023-02-21T06:21:37;4.10;99.90
7762;DHT22;3925;48.636;9.516;2023-02-21T06:24:06;4.10;99.90
7762;DHT22;3925;48.636;9.516;2023-02-21T06:26:33;4.00;99.90
7762;DHT22;3925;48.636;9.516;2023-02-21T06:29:01;3.80;99.90
7762;DHT22;3925;48.636;9.516;2023-02-21T06:31:28;3.70;99.90
7762;DHT22;3925;48.636;9.516;2023-02-21T06:33:55;3.60;99.90
7762;DHT22;3925;48.636;9.516;2023-02-21T06:36:25;3.60;99.90
7762;DHT22;3925;48.636;9.516;2023-02-21T06:38:54;3.60;99.90
7762;DHT22;3925;48.636;9.516;2023-02-21T06:41:24;3.60;99.90
7762;DHT22;3925;48.636;9.516;2023-02-21T06:43:52;4.00;99.90
7762;DHT22;3925;48.636;9.516;2023-02-21T06:46:22;4.00;99.90
7762;DHT22;3925;48.636;9.516;2023-02-21T06:48:50;4.20;99.90
7762;DHT22;3925;48.636;9.516;2023-02-21T06:51:17;4.30;99.90
7762;DHT22;3925;48.636;9.516;2023-02-21T06:53:47;4.50;99.90
7762;DHT22;3925;48.636;9.516;2023-02-21T06:56:14;4.50;99.90
7762;DHT22;3925;48.636;9.516;2023-02-21T06:58:41;4.60;99.90
7762;DHT22;3925;48.636;9.516;2023-02-21T07:01:08;4.80;99.90
7762;DHT22;3925;48.636;9.516;2023-02-21T07:03:39;4.50;99.90
7762;DHT22;3925;48.636;9.516;2023-02-21T07:06:07;4.60;99.90
7762;DHT22;3925;48.636;9.516;2023-02-21T07:08:34;4.90;99.90
7762;DHT22;3925;48.636;9.516;2023-02-21T07:11:01;5.00;99.90
7762;DHT22;3925;48.636;9.516;2023-02-21T07:13:28;4.90;99.90
7762;DHT22;3925;48.636;9.516;2023-02-21T07:15:55;4.60;99.90
7762;DHT22;3925;48.636;9.516;2023-02-21T07:18:22;4.10;99.90
7762;DHT22;3925;48.636;9.516;2023-02-21T07:20:50;4.00;99.90
7762;DHT22;3925;48.636;9.516;2023-02-21T07:23:17;4.20;99.90
7762;DHT22;3925;48.636;9.516;2023-02-21T07:25:44;4.50;99.90
7762;DHT22;3925;48.636;9.516;2023-02-21T07:28:11;4.70;99.90
7762;DHT22;3925;48.636;9.516;2023-02-21T07:30:38;4.90;99.90
7762;DHT22;3925;48.636;9.516;2023-02-21T07:33:05;5.00;99.90
7762;DHT22;3925;48.636;9.516;2023-02-21T07:35:32;5.10;99.90
7762;DHT22;3925;48.636;9.516;2023-02-21T07:38:00;5.30;99.90
7762;DHT22;3925;48.636;9.516;2023-02-21T07:40:27;5.50;99.90
7762;DHT22;3925;48.636;9.516;2023-02-21T07:42:54;5.60;99.90
7762;DHT22;3925;48.636;9.516;2023-02-21T07:45:21;5.80;99.90
7762;DHT22;3925;48.636;9.516;2023-02-21T07:47:47;6.20;99.90
7762;DHT22;3925;48.636;9.516;2023-02-21T07:50:15;6.90;99.90
7762;DHT22;3925;48.636;9.516;2023-02-21T07:52:42;8.20;99.90
7762;DHT22;3925;48.636;9.516;2023-02-21T07:55:12;9.50;99.90
7762;DHT22;3925;48.636;9.516;2023-02-21T07:57:38;11.00;99.50
7762;DHT22;3925;48.636;9.516;2023-02-21T08:00:06;12.60;96.90
7762;DHT22;3925;48.636;9.516;2023-02-21T08:02:33;13.70;93.90
7762;DHT22;3925;48.636;9.516;2023-02-21T08:05:00;14.40;90.80
7762;DHT22;3925;48.636;9.516;2023-02-21T08:07:28;14.80;89.70
7762;DHT22;3925;48.636;9.516;2023-02-21T08:09:55;15.40;86.00
7762;DHT22;3925;48.636;9.516;2023-02-21T08:12:23;16.00;81.30
7762;DHT22;3925;48.636;9.516;2023-02-21T08:14:50;17.30;76.20
7762;DHT22;3925;48.636;9.516;2023-02-21T08:17:17;18.20;71.80
7762;DHT22;3925;48.636;9.516;2023-02-21T08:19:44;18.90;66.80
7762;DHT22;3925;48.636;9.516;2023-02-21T08:22:11;20.40;61.20
7762;DHT22;3925;48.636;9.516;2023-02-21T08:24:37;22.10;56.50
7762;DHT22;3925;48.636;9.516;2023-02-21T08:27:04;23.30;50.80
7762;DHT22;3925;48.636;9.516;2023-02-21T08:29:33;23.40;47.70
7762;DHT22;3925;48.636;9.516;2023-02-21T08:32:00;23.90;45.40
7762;DHT22;3925;48.636;9.516;2023-02-21T08:34:27;25.10;43.80
7762;DHT22;3925;48.636;9.516;2023-02-21T08:36:55;24.10;42.50
7762;DHT22;3925;48.636;9.516;2023-02-21T08:39:22;25.00;42.40
7762;DHT22;3925;48.636;9.516;2023-02-21T08:41:49;25.70;39.80
7762;DHT22;3925;48.636;9.516;2023-02-21T08:44:17;25.80;39.50
7762;DHT22;3925;48.636;9.516;2023-02-21T08:46:47;26.00;39.10
7762;DHT22;3925;48.636;9.516;2023-02-21T08:49:14;27.50;37.70
7762;DHT22;3925;48.636;9.516;2023-02-21T08:51:41;28.40;34.90
7762;DHT22;3925;48.636;9.516;2023-02-21T08:54:08;29.00;34.00
7762;DHT22;3925;48.636;9.516;2023-02-21T08:56:35;28.40;34.40
7762;DHT22;3925;48.636;9.516;2023-02-21T08:59:02;28.40;34.20
7762;DHT22;3925;48.636;9.516;2023-02-21T09:01:31;29.60;32.70
7762;DHT22;3925;48.636;9.516;2023-02-21T09:04:00;30.50;31.20
7762;DHT22;3925;48.636;9.516;2023-02-21T09:06:27;30.70;31.30
7762;DHT22;3925;48.636;9.516;2023-02-21T09:08:53;31.50;30.20
7762;DHT22;3925;48.636;9.516;2023-02-21T09:11:20;31.40;30.00
7762;DHT22;3925;48.636;9.516;2023-02-21T09:13:47;31.40;29.10
7762;DHT22;3925;48.636;9.516;2023-02-21T09:16:14;30.90;29.10
7762;DHT22;3925;48.636;9.516;2023-02-21T09:18:41;31.10;29.50
7762;DHT22;3925;48.636;9.516;2023-02-21T09:21:09;31.80;28.70
7762;DHT22;3925;48.636;9.516;2023-02-21T09:23:36;30.00;29.10
7762;DHT22;3925;48.636;9.516;2023-02-21T09:26:03;30.30;30.10
7762;DHT22;3925;48.636;9.516;2023-02-21T09:28:30;31.50;29.00
7762;DHT22;3925;48.636;9.516;2023-02-21T09:30:57;32.30;29.00
7762;DHT22;3925;48.636;9.516;2023-02-21T09:33:24;33.10;28.10
7762;DHT22;3925;48.636;9.516;2023-02-21T09:35:51;31.90;27.60
7762;DHT22;3925;48.636;9.516;2023-02-21T09:38:19;31.40;27.50
7762;DHT22;3925;48.636;9.516;2023-02-21T09:40:49;30.50;28.90
7762;DHT22;3925;48.636;9.516;2023-02-21T09:43:18;30.90;29.90
7762;DHT22;3925;48.636;9.516;2023-02-21T09:45:46;32.00;28.30
7762;DHT22;3925;48.636;9.516;2023-02-21T09:48:17;31.70;28.00
7762;DHT22;3925;48.636;9.516;2023-02-21T09:50:48;32.60;27.70
7762;DHT22;3925;48.636;9.516;2023-02-21T09:53:21;33.40;27.10
7762;DHT22;3925;48.636;9.516;2023-02-21T09:55:52;32.50;26.90
7762;DHT22;3925;48.636;9.516;2023-02-21T09:58:20;33.10;27.90
7762;DHT22;3925;48.636;9.516;2023-02-21T10:00:47;33.50;27.90
7762;DHT22;3925;48.636;9.516;2023-02-21T10:03:25;34.10;26.90
7762;DHT22;3925;48.636;9.516;2023-02-21T10:06:02;34.30;25.90
7762;DHT22;3925;48.636;9.516;2023-02-21T10:08:38;35.00;26.20
7762;DHT22;3925;48.636;9.516;2023-02-21T10:11:21;35.20;26.10
7762;DHT22;3925;48.636;9.516;2023-02-21T10:13:55;35.40;25.80
7762;DHT22;3925;48.636;9.516;2023-02-21T10:16:27;35.20;25.20
7762;DHT22;3925;48.636;9.516;2023-02-21T10:19:02;35.30;25.00
7762;DHT22;3925;48.636;9.516;2023-02-21T10:21:34;34.80;25.40
7762;DHT22;3925;48.636;9.516;2023-02-21T10:24:11;33.90;24.90
7762;DHT22;3925;48.636;9.516;2023-02-21T10:26:40;33.50;25.50
7762;DHT22;3925;48.636;9.516;2023-02-21T10:29:19;33.60;26.00
7762;DHT22;3925;48.636;9.516;2023-02-21T10:31:49;33.80;26.50
7762;DHT22;3925;48.636;9.516;2023-02-21T10:34:22;33.50;26.20
7762;DHT22;3925;48.636;9.516;2023-02-21T10:36:51;32.00;27.00
7762;DHT22;3925;48.636;9.516;2023-02-21T10:39:27;33.20;27.00
7762;DHT22;3925;48.636;9.516;2023-02-21T10:41:55;33.00;25.40
7762;DHT22;3925;48.636;9.516;2023-02-21T10:44:26;33.10;26.90
7762;DHT22;3925;48.636;9.516;2023-02-21T10:47:01;32.70;27.10
7762;DHT22;3925;48.636;9.516;2023-02-21T10:49:30;33.30;25.80
7762;DHT22;3925;48.636;9.516;2023-02-21T10:52:04;33.40;25.20
7762;DHT22;3925;48.636;9.516;2023-02-21T10:54:33;33.40;26.50
7762;DHT22;3925;48.636;9.516;2023-02-21T10:57:02;33.80;25.80
7762;DHT22;3925;48.636;9.516;2023-02-21T10:59:32;34.00;24.90
7762;DHT22;3925;48.636;9.516;2023-02-21T11:02:01;33.50;25.20
7762;DHT22;3925;48.636;9.516;2023-02-21T11:04:30;34.20;25.60
7762;DHT22;3925;48.636;9.516;2023-02-21T11:07:02;34.30;24.70
7762;DHT22;3925;48.636;9.516;2023-02-21T11:09:36;34.50;24.60
7762;DHT22;3925;48.636;9.516;2023-02-21T11:12:16;34.50;24.40
7762;DHT22;3925;48.636;9.516;2023-02-21T11:14:44;34.70;24.00
7762;DHT22;3925;48.636;9.516;2023-02-21T11:17:28;33.40;25.00
7762;DHT22;3925;48.636;9.516;2023-02-21T11:20:01;32.60;25.30
7762;DHT22;3925;48.636;9.516;2023-02-21T11:22:36;33.10;26.00
7762;DHT22;3925;48.636;9.516;2023-02-21T11:25:11;33.60;25.60
7762;DHT22;3925;48.636;9.516;2023-02-21T11:27:43;33.40;25.00
7762;DHT22;3925;48.636;9.516;2023-02-21T11:30:18;33.90;24.70
7762;DHT22;3925;48.636;9.516;2023-02-21T11:32:49;34.00;24.60
7762;DHT22;3925;48.636;9.516;2023-02-21T11:35:23;32.00;25.10
7762;DHT22;3925;48.636;9.516;2023-02-21T11:37:53;30.40;26.20
7762;DHT22;3925;48.636;9.516;2023-02-21T11:40:39;31.60;26.40
7762;DHT22;3925;48.636;9.516;2023-02-21T11:43:25;31.10;25.40
7762;DHT22;3925;48.636;9.516;2023-02-21T11:46:04;31.30;26.50
7762;DHT22;3925;48.636;9.516;2023-02-21T11:48:36;31.70;26.80
7762;DHT22;3925;48.636;9.516;2023-02-21T11:51:05;30.60;26.70
7762;DHT22;3925;48.636;9.516;2023-02-21T11:53:38;31.10;27.30
7762;DHT22;3925;48.636;9.516;2023-02-21T11:56:23;31.20;26.40
7762;DHT22;3925;48.636;9.516;2023-02-21T11:58:59;31.50;25.90
7762;DHT22;3925;48.636;9.516;2023-02-21T12:01:31;30.70;27.50
7762;DHT22;3925;48.636;9.516;2023-02-21T12:04:16;30.20;26.80
7762;DHT22;3925;48.636;9.516;2023-02-21T12:06:48;30.20;26.70
7762;DHT22;3925;48.636;9.516;2023-02-21T12:09:24;30.50;27.20
7762;DHT22;3925;48.636;9.516;2023-02-21T12:12:24;30.30;27.00
7762;DHT22;3925;48.636;9.516;2023-02-21T12:15:00;29.80;27.80
7762;DHT22;3925;48.636;9.516;2023-02-21T12:17:47;28.70;27.40
7762;DHT22;3925;48.636;9.516;2023-02-21T12:20:24;27.90;30.00
7762;DHT22;3925;48.636;9.516;2023-02-21T12:23:00;28.30;30.00
7762;DHT22;3925;48.636;9.516;2023-02-21T12:25:35;27.50;29.20
7762;DHT22;3925;48.636;9.516;2023-02-21T12:28:15;26.50;30.10
7762;DHT22;3925;48.636;9.516;2023-02-21T12:30:58;26.10;32.30
7762;DHT22;3925;48.636;9.516;2023-02-21T12:33:40;25.20;33.70
7762;DHT22;3925;48.636;9.516;2023-02-21T12:36:27;23.30;35.20
7762;DHT22;3925;48.636;9.516;2023-02-21T12:39:09;21.50;36.80
7762;DHT22;3925;48.636;9.516;2023-02-21T12:41:54;20.90;38.60
7762;DHT22;3925;48.636;9.516;2023-02-21T12:44:33;20.50;39.60
7762;DHT22;3925;48.636;9.516;2023-02-21T12:47:08;20.60;42.90
7762;DHT22;3925;48.636;9.516;2023-02-21T12:49:43;20.20;42.30
7762;DHT22;3925;48.636;9.516;2023-02-21T12:52:14;19.80;42.20
7762;DHT22;3925;48.636;9.516;2023-02-21T12:54:45;19.80;43.10
7762;DHT22;3925;48.636;9.516;2023-02-21T12:57:15;19.90;43.40
7762;DHT22;3925;48.636;9.516;2023-02-21T12:59:53;20.20;44.00
7762;DHT22;3925;48.636;9.516;2023-02-21T13:02:25;19.50;43.70
7762;DHT22;3925;48.636;9.516;2023-02-21T13:04:58;19.70;44.50
7762;DHT22;3925;48.636;9.516;2023-02-21T13:07:32;19.30;43.60
7762;DHT22;3925;48.636;9.516;2023-02-21T13:10:05;19.10;45.90
7762;DHT22;3925;48.636;9.516;2023-02-21T13:12:38;19.30;46.70
7762;DHT22;3925;48.636;9.516;2023-02-21T13:15:16;19.40;44.70
7762;DHT22;3925;48.636;9.516;2023-02-21T13:17:49;19.30;45.40
7762;DHT22;3925;48.636;9.516;2023-02-21T13:20:20;19.00;45.20
7762;DHT22;3925;48.636;9.516;2023-02-21T13:26:19;18.70;47.90
7762;DHT22;3925;48.636;9.516;2023-02-21T13:28:51;18.70;46.20
7762;DHT22;3925;48.636;9.516;2023-02-21T13:31:21;18.60;47.50
7762;DHT22;3925;48.636;9.516;2023-02-21T13:33:50;18.50;48.40
7762;DHT22;3925;48.636;9.516;2023-02-21T13:36:24;18.40;47.60
7762;DHT22;3925;48.636;9.516;2023-02-21T13:39:04;18.20;48.00
7762;DHT22;3925;48.636;9.516;2023-02-21T13:41:39;18.00;49.40
7762;DHT22;3925;48.636;9.516;2023-02-21T13:44:10;17.70;51.60
7762;DHT22;3925;48.636;9.516;2023-02-21T13:47:11;17.50;51.80
7762;DHT22;3925;48.636;9.516;2023-02-21T13:49:45;17.50;53.00
7762;DHT22;3925;48.636;9.516;2023-02-21T13:52:26;17.40;53.00
7762;DHT22;3925;48.636;9.516;2023-02-21T14:01:23;17.00;54.40
7762;DHT22;3925;48.636;9.516;2023-02-21T14:07:06;16.90;54.60
7762;DHT22;3925;48.636;9.516;2023-02-21T14:09:34;16.90;55.70
7762;DHT22;3925;48.636;9.516;2023-02-21T14:12:04;16.70;54.20
7762;DHT22;3925;48.636;9.516;2023-02-21T14:14:34;16.80;54.90
7762;DHT22;3925;48.636;9.516;2023-02-21T14:17:05;16.80;55.20
7762;DHT22;3925;48.636;9.516;2023-02-21T14:19:36;16.80;55.00
7762;DHT22;3925;48.636;9.516;2023-02-21T14:22:17;16.80;55.50
7762;DHT22;3925;48.636;9.516;2023-02-21T14:24:48;16.80;55.70
7762;DHT22;3925;48.636;9.516;2023-02-21T14:27:36;16.70;56.10
7762;DHT22;3925;48.636;9.516;2023-02-21T14:30:28;16.70;55.70
7762;DHT22;3925;48.636;9.516;2023-02-21T14:33:23;16.50;56.60
7762;DHT22;3925;48.636;9.516;2023-02-21T14:35:58;16.50;56.40
7762;DHT22;3925;48.636;9.516;2023-02-21T14:38:29;16.60;56.20
7762;DHT22;3925;48.636;9.516;2023-02-21T14:44:01;16.40;55.90
7762;DHT22;3925;48.636;9.516;2023-02-21T14:49:46;16.40;56.50
7762;DHT22;3925;48.636;9.516;2023-02-21T14:52:39;16.40;56.50
7762;DHT22;3925;48.636;9.516;2023-02-21T14:55:39;16.30;57.30
7762;DHT22;3925;48.636;9.516;2023-02-21T15:01:28;16.10;56.50
7762;DHT22;3925;48.636;9.516;2023-02-21T15:04:03;16.20;56.80
7762;DHT22;3925;48.636;9.516;2023-02-21T15:06:35;16.30;57.70
7762;DHT22;3925;48.636;9.516;2023-02-21T15:09:10;16.20;57.10
7762;DHT22;3925;48.636;9.516;2023-02-21T15:11:40;16.30;57.60
7762;DHT22;3925;48.636;9.516;2023-02-21T15:14:16;16.30;57.70
7762;DHT22;3925;48.636;9.516;2023-02-21T15:16:49;16.20;57.30
7762;DHT22;3925;48.636;9.516;2023-02-21T15:19:29;16.30;57.50
7762;DHT22;3925;48.636;9.516;2023-02-21T15:22:13;16.20;57.60
7762;DHT22;3925;48.636;9.516;2023-02-21T15:24:40;16.10;57.40
7762;DHT22;3925;48.636;9.516;2023-02-21T15:27:10;16.10;57.70
7762;DHT22;3925;48.636;9.516;2023-02-21T15:29:37;16.20;58.10
7762;DHT22;3925;48.636;9.516;2023-02-21T15:32:05;16.10;58.60
7762;DHT22;3925;48.636;9.516;2023-02-21T15:34:36;16.10;59.00
7762;DHT22;3925;48.636;9.516;2023-02-21T15:37:13;16.10;58.90
7762;DHT22;3925;48.636;9.516;2023-02-21T15:39:43;16.10;58.90
7762;DHT22;3925;48.636;9.516;2023-02-21T15:42:14;16.10;58.70
7762;DHT22;3925;48.636;9.516;2023-02-21T15:44:44;16.10;58.90
7762;DHT22;3925;48.636;9.516;2023-02-21T15:47:15;16.00;59.50
7762;DHT22;3925;48.636;9.516;2023-02-21T15:49:44;15.90;59.30
7762;DHT22;3925;48.636;9.516;2023-02-21T15:52:26;15.90;60.00
7762;DHT22;3925;48.636;9.516;2023-02-21T15:55:12;15.80;59.80
7762;DHT22;3925;48.636;9.516;2023-02-21T15:57:40;15.80;60.00
7762;DHT22;3925;48.636;9.516;2023-02-21T16:00:19;15.60;59.70
7762;DHT22;3925;48.636;9.516;2023-02-21T16:02:47;15.50;59.70
7762;DHT22;3925;48.636;9.516;2023-02-21T16:05:25;15.50;60.40
7762;DHT22;3925;48.636;9.516;2023-02-21T16:07:53;15.50;61.10
7762;DHT22;3925;48.636;9.516;2023-02-21T16:10:22;15.40;61.10
7762;DHT22;3925;48.636;9.516;2023-02-21T16:12:57;15.40;61.10
7762;DHT22;3925;48.636;9.516;2023-02-21T16:15:27;15.40;61.10
7762;DHT22;3925;48.636;9.516;2023-02-21T16:17:56;15.30;60.90
7762;DHT22;3925;48.636;9.516;2023-02-21T16:20:27;15.20;61.50
7762;DHT22;3925;48.636;9.516;2023-02-21T16:23:13;15.20;61.90
7762;DHT22;3925;48.636;9.516;2023-02-21T16:25:57;15.10;62.10
7762;DHT22;3925;48.636;9.516;2023-02-21T16:28:26;15.00;62.40
7762;DHT22;3925;48.636;9.516;2023-02-21T16:30:55;14.90;63.30
7762;DHT22;3925;48.636;9.516;2023-02-21T16:33:24;14.80;64.10
7762;DHT22;3925;48.636;9.516;2023-02-21T16:35:51;14.70;64.30
7762;DHT22;3925;48.636;9.516;2023-02-21T16:38:20;14.60;64.80
7762;DHT22;3925;48.636;9.516;2023-02-21T16:40:47;14.40;66.20
7762;DHT22;3925;48.636;9.516;2023-02-21T16:43:19;14.30;66.80
7762;DHT22;3925;48.636;9.516;2023-02-21T16:45:48;14.20;67.00
7762;DHT22;3925;48.636;9.516;2023-02-21T16:48:18;14.10;67.80
7762;DHT22;3925;48.636;9.516;2023-02-21T16:50:47;14.00;68.30
7762;DHT22;3925;48.636;9.516;2023-02-21T16:53:16;13.80;69.20
7762;DHT22;3925;48.636;9.516;2023-02-21T16:55:43;13.70;70.00
7762;DHT22;3925;48.636;9.516;2023-02-21T16:58:18;13.70;70.80
7762;DHT22;3925;48.636;9.516;2023-02-21T17:00:49;13.80;71.50
7762;DHT22;3925;48.636;9.516;2023-02-21T17:03:17;13.70;72.50
7762;DHT22;3925;48.636;9.516;2023-02-21T17:05:44;13.50;73.40
7762;DHT22;3925;48.636;9.516;2023-02-21T17:08:11;13.40;74.90
7762;DHT22;3925;48.636;9.516;2023-02-21T17:10:38;13.30;76.00
7762;DHT22;3925;48.636;9.516;2023-02-21T17:13:05;13.10;77.00
7762;DHT22;3925;48.636;9.516;2023-02-21T17:15:31;13.00;77.80
7762;DHT22;3925;48.636;9.516;2023-02-21T17:18:00;12.90;79.90
7762;DHT22;3925;48.636;9.516;2023-02-21T17:20:27;12.80;80.50